sensor_id;sensor_type;location;lat;lon;timestamp;temperature;humidity
62476;DHT22;50739;45.670;11.936;2024-03-08T00:04:40;9.23;88.71
62476;DHT22;50739;45.670;11.936;2024-03-08T00:09:43;9.25;88.09
62476;DHT22;50739;45.670;11.936;2024-03-08T00:14:47;9.21;87.95
62476;DHT22;50739;45.670;11.936;2024-03-08T00:19:51;9.20;88.33
62476;DHT22;50739;45.670;11.936;2024-03-08T00:24:53;9.21;87.72
62476;DHT22;50739;45.670;11.936;2024-03-08T00:29:57;9.17;88.50
62476;DHT22;50739;45.670;11.936;2024-03-08T00:35:00;9.31;87.84
62476;DHT22;50739;45.670;11.936;2024-03-08T01:16:16;9.04;87.16
62476;DHT22;50739;45.670;11.936;2024-03-08T01:21:19;9.18;85.70
62476;DHT22;50739;45.670;11.936;2024-03-08T01:26:21;9.15;85.77
62476;DHT22;50739;45.670;11.936;2024-03-08T01:31:25;9.13;85.19
62476;DHT22;50739;45.670;11.936;2024-03-08T01:36:29;9.13;85.09
62476;DHT22;50739;45.670;11.936;2024-03-08T01:41:32;9.08;84.64
62476;DHT22;50739;45.670;11.936;2024-03-08T01:46:36;9.06;84.37
62476;DHT22;50739;45.670;11.936;2024-03-08T01:51:39;9.13;84.40
62476;DHT22;50739;45.670;11.936;2024-03-08T01:56:42;9.07;84.33
62476;DHT22;50739;45.670;11.936;2024-03-08T02:01:46;9.08;84.53
62476;DHT22;50739;45.670;11.936;2024-03-08T02:06:48;9.03;84.62
62476;DHT22;50739;45.670;11.936;2024-03-08T02:11:51;9.13;84.33
62476;DHT22;50739;45.670;11.936;2024-03-08T02:17:00;9.07;84.21
62476;DHT22;50739;45.670;11.936;2024-03-08T02:22:04;9.01;84.89
62476;DHT22;50739;45.670;11.936;2024-03-08T02:27:07;8.99;84.21
62476;DHT22;50739;45.670;11.936;2024-03-08T02:32:12;8.99;84.82
62476;DHT22;50739;45.670;11.936;2024-03-08T02:37:16;8.99;84.69
62476;DHT22;50739;45.670;11.936;2024-03-08T02:42:18;8.97;84.55
62476;DHT22;50739;45.670;11.936;2024-03-08T02:47:21;8.97;84.18
62476;DHT22;50739;45.670;11.936;2024-03-08T02:52:25;9.01;84.68
62476;DHT22;50739;45.670;11.936;2024-03-08T02:57:27;8.97;84.62
62476;DHT22;50739;45.670;11.936;2024-03-08T03:02:29;8.83;84.80
62476;DHT22;50739;45.670;11.936;2024-03-08T03:07:33;8.90;84.87
62476;DHT22;50739;45.670;11.936;2024-03-08T03:12:35;8.84;85.33
62476;DHT22;50739;45.670;11.936;2024-03-08T03:17:39;8.83;85.49
62476;DHT22;50739;45.670;11.936;2024-03-08T03:22:43;8.69;85.92
62476;DHT22;50739;45.670;11.936;2024-03-08T03:27:48;8.68;86.04
62476;DHT22;50739;45.670;11.936;2024-03-08T03:32:50;8.65;85.25
62476;DHT22;50739;45.670;11.936;2024-03-08T03:37:54;8.65;86.19
62476;DHT22;50739;45.670;11.936;2024-03-08T03:43:06;8.55;86.91
62476;DHT22;50739;45.670;11.936;2024-03-08T03:48:10;8.50;86.51
62476;DHT22;50739;45.670;11.936;2024-03-08T03:53:14;8.46;86.09
62476;DHT22;50739;45.670;11.936;2024-03-08T03:58:17;8.44;85.40
62476;DHT22;50739;45.670;11.936;2024-03-08T04:03:23;8.45;85.49
62476;DHT22;50739;45.670;11.936;2024-03-08T04:08:27;8.32;85.86
62476;DHT22;50739;45.670;11.936;2024-03-08T04:13:29;8.31;85.84
62476;DHT22;50739;45.670;11.936;2024-03-08T04:18:34;8.25;85.88
62476;DHT22;50739;45.670;11.936;2024-03-08T04:23:40;8.17;86.11
62476;DHT22;50739;45.670;11.936;2024-03-08T04:28:42;8.03;86.77
62476;DHT22;50739;45.670;11.936;2024-03-08T04:33:44;8.03;86.57
62476;DHT22;50739;45.670;11.936;2024-03-08T04:38:48;8.11;85.95
62476;DHT22;50739;45.670;11.936;2024-03-08T04:43:50;8.04;86.86
62476;DHT22;50739;45.670;11.936;2024-03-08T04:48:53;8.08;86.87
62476;DHT22;50739;45.670;11.936;2024-03-08T04:53:57;8.01;87.13
62476;DHT22;50739;45.670;11.936;2024-03-08T04:59:00;8.05;87.95
62476;DHT22;50739;45.670;11.936;2024-03-08T05:04:03;8.14;87.84
62476;DHT22;50739;45.670;11.936;2024-03-08T05:09:06;8.10;88.35
62476;DHT22;50739;45.670;11.936;2024-03-08T05:14:16;8.03;89.32
62476;DHT22;50739;45.670;11.936;2024-03-08T05:19:21;8.14;89.50
62476;DHT22;50739;45.670;11.936;2024-03-08T05:24:25;8.07;90.17
62476;DHT22;50739;45.670;11.936;2024-03-08T05:29:28;8.18;89.79
62476;DHT22;50739;45.670;11.936;2024-03-08T05:34:30;8.15;90.22
62476;DHT22;50739;45.670;11.936;2024-03-08T05:39:35;8.14;90.44
62476;DHT22;50739;45.670;11.936;2024-03-08T05:44:37;8.12;91.09
62476;DHT22;50739;45.670;11.936;2024-03-08T05:49:41;8.03;91.32
62476;DHT22;50739;45.670;11.936;2024-03-08T05:54:46;8.04;91.48
62476;DHT22;50739;45.670;11.936;2024-03-08T05:59:49;8.05;91.15
62476;DHT22;50739;45.670;11.936;2024-03-08T06:04:51;8.14;91.59
62476;DHT22;50739;45.670;11.936;2024-03-08T06:09:55;8.05;91.24
62476;DHT22;50739;45.670;11.936;2024-03-08T06:14:57;8.11;92.08
62476;DHT22;50739;45.670;11.936;2024-03-08T06:19:59;8.01;91.54
62476;DHT22;50739;45.670;11.936;2024-03-08T06:25:04;8.03;92.05
62476;DHT22;50739;45.670;11.936;2024-03-08T06:30:07;8.05;91.69
62476;DHT22;50739;45.670;11.936;2024-03-08T06:35:10;8.01;91.52
62476;DHT22;50739;45.670;11.936;2024-03-08T06:40:15;8.01;91.45
62476;DHT22;50739;45.670;11.936;2024-03-08T06:45:17;8.00;91.29
62476;DHT22;50739;45.670;11.936;2024-03-08T06:50:22;8.00;91.81
62476;DHT22;50739;45.670;11.936;2024-03-08T06:55:25;7.93;92.37
62476;DHT22;50739;45.670;11.936;2024-03-08T07:00:28;7.94;92.12
62476;DHT22;50739;45.670;11.936;2024-03-08T07:05:31;7.84;92.49
62476;DHT22;50739;45.670;11.936;2024-03-08T07:10:35;7.90;92.82
62476;DHT22;50739;45.670;11.936;2024-03-08T07:15:38;7.98;91.99
62476;DHT22;50739;45.670;11.936;2024-03-08T07:20:41;7.90;91.69
62476;DHT22;50739;45.670;11.936;2024-03-08T07:25:45;7.98;91.03
62476;DHT22;50739;45.670;11.936;2024-03-08T07:30:48;7.84;91.81
62476;DHT22;50739;45.670;11.936;2024-03-08T07:36:09;8.04;89.72
62476;DHT22;50739;45.670;11.936;2024-03-08T07:41:13;7.90;88.12
62476;DHT22;50739;45.670;11.936;2024-03-08T07:46:17;7.79;88.68
62476;DHT22;50739;45.670;11.936;2024-03-08T07:51:19;7.63;89.88
62476;DHT22;50739;45.670;11.936;2024-03-08T07:56:23;7.66;89.67
62476;DHT22;50739;45.670;11.936;2024-03-08T08:01:26;7.61;90.98
62476;DHT22;50739;45.670;11.936;2024-03-08T08:06:28;7.62;90.67
62476;DHT22;50739;45.670;11.936;2024-03-08T08:11:34;7.63;90.36
62476;DHT22;50739;45.670;11.936;2024-03-08T08:16:36;7.59;89.61
62476;DHT22;50739;45.670;11.936;2024-03-08T08:21:38;7.59;90.08
62476;DHT22;50739;45.670;11.936;2024-03-08T08:26:42;7.51;90.48
62476;DHT22;50739;45.670;11.936;2024-03-08T08:31:45;7.51;90.91
62476;DHT22;50739;45.670;11.936;2024-03-08T08:36:48;7.58;89.66
62476;DHT22;50739;45.670;11.936;2024-03-08T08:41:51;7.65;90.24
62476;DHT22;50739;45.670;11.936;2024-03-08T08:46:54;7.56;89.77
62476;DHT22;50739;45.670;11.936;2024-03-08T08:51:56;7.63;89.25
62476;DHT22;50739;45.670;11.936;2024-03-08T08:57:00;7.65;89.28
62476;DHT22;50739;45.670;11.936;2024-03-08T09:02:08;7.63;88.12
62476;DHT22;50739;45.670;11.936;2024-03-08T09:07:10;7.55;87.39
62476;DHT22;50739;45.670;11.936;2024-03-08T09:12:16;7.49;87.89
62476;DHT22;50739;45.670;11.936;2024-03-08T09:17:18;7.61;87.93
62476;DHT22;50739;45.670;11.936;2024-03-08T09:22:21;7.48;87.06
62476;DHT22;50739;45.670;11.936;2024-03-08T09:27:25;7.46;86.49
62476;DHT22;50739;45.670;11.936;2024-03-08T09:32:27;7.59;86.25
62476;DHT22;50739;45.670;11.936;2024-03-08T09:37:30;7.58;86.31
62476;DHT22;50739;45.670;11.936;2024-03-08T09:42:34;7.58;86.17
62476;DHT22;50739;45.670;11.936;2024-03-08T09:47:39;7.61;85.17
62476;DHT22;50739;45.670;11.936;2024-03-08T09:52:42;7.52;86.39
62476;DHT22;50739;45.670;11.936;2024-03-08T09:57:46;7.54;86.59
62476;DHT22;50739;45.670;11.936;2024-03-08T10:03:09;7.62;86.91
62476;DHT22;50739;45.670;11.936;2024-03-08T10:08:15;7.69;87.32
62476;DHT22;50739;45.670;11.936;2024-03-08T10:13:19;7.70;86.91
62476;DHT22;50739;45.670;11.936;2024-03-08T10:18:21;7.65;86.65
62476;DHT22;50739;45.670;11.936;2024-03-08T10:23:24;7.44;86.15
62476;DHT22;50739;45.670;11.936;2024-03-08T10:28:27;7.42;88.33
62476;DHT22;50739;45.670;11.936;2024-03-08T10:33:30;7.46;86.95
62476;DHT22;50739;45.670;11.936;2024-03-08T10:38:32;7.45;87.34
62476;DHT22;50739;45.670;11.936;2024-03-08T10:43:49;7.54;87.16
62476;DHT22;50739;45.670;11.936;2024-03-08T10:48:55;7.48;88.31
62476;DHT22;50739;45.670;11.936;2024-03-08T10:54:01;7.45;87.64
62476;DHT22;50739;45.670;11.936;2024-03-08T10:59:07;7.54;87.70
62476;DHT22;50739;45.670;11.936;2024-03-08T11:04:10;7.67;87.64
62476;DHT22;50739;45.670;11.936;2024-03-08T11:09:28;7.82;87.33
62476;DHT22;50739;45.670;11.936;2024-03-08T11:14:45;7.70;86.99
62476;DHT22;50739;45.670;11.936;2024-03-08T11:19:49;7.77;87.51
62476;DHT22;50739;45.670;11.936;2024-03-08T11:24:53;7.70;87.63
62476;DHT22;50739;45.670;11.936;2024-03-08T11:30:02;7.63;86.49
62476;DHT22;50739;45.670;11.936;2024-03-08T11:35:19;7.69;86.40
62476;DHT22;50739;45.670;11.936;2024-03-08T11:40:24;7.73;87.22
62476;DHT22;50739;45.670;11.936;2024-03-08T11:45:28;7.65;86.08
62476;DHT22;50739;45.670;11.936;2024-03-08T11:50:31;7.65;86.43
62476;DHT22;50739;45.670;11.936;2024-03-08T11:55:34;7.63;86.20
62476;DHT22;50739;45.670;11.936;2024-03-08T12:00:38;7.77;85.60
62476;DHT22;50739;45.670;11.936;2024-03-08T12:05:42;7.65;85.62
62476;DHT22;50739;45.670;11.936;2024-03-08T12:10:44;7.63;85.89
62476;DHT22;50739;45.670;11.936;2024-03-08T12:15:48;7.67;86.07
62476;DHT22;50739;45.670;11.936;2024-03-08T12:20:50;7.77;86.12
62476;DHT22;50739;45.670;11.936;2024-03-08T12:25:53;7.77;85.75
62476;DHT22;50739;45.670;11.936;2024-03-08T12:30:57;7.76;85.72
62476;DHT22;50739;45.670;11.936;2024-03-08T12:36:00;7.70;84.58
62476;DHT22;50739;45.670;11.936;2024-03-08T12:41:03;7.70;85.27
62476;DHT22;50739;45.670;11.936;2024-03-08T12:46:07;7.77;85.27
62476;DHT22;50739;45.670;11.936;2024-03-08T12:51:10;7.84;86.16
62476;DHT22;50739;45.670;11.936;2024-03-08T12:56:13;7.90;87.61
62476;DHT22;50739;45.670;11.936;2024-03-08T13:01:17;8.07;86.50
62476;DHT22;50739;45.670;11.936;2024-03-08T13:06:19;7.94;85.55
62476;DHT22;50739;45.670;11.936;2024-03-08T13:11:25;8.03;85.76
62476;DHT22;50739;45.670;11.936;2024-03-08T13:16:29;8.04;85.26
62476;DHT22;50739;45.670;11.936;2024-03-08T13:21:32;8.12;85.32
62476;DHT22;50739;45.670;11.936;2024-03-08T13:26:36;8.20;85.18
62476;DHT22;50739;45.670;11.936;2024-03-08T13:31:40;8.10;84.44
62476;DHT22;50739;45.670;11.936;2024-03-08T13:36:42;8.08;83.93
62476;DHT22;50739;45.670;11.936;2024-03-08T13:41:46;8.07;84.28
62476;DHT22;50739;45.670;11.936;2024-03-08T13:46:50;8.07;84.14
62476;DHT22;50739;45.670;11.936;2024-03-08T13:51:53;8.12;84.43
62476;DHT22;50739;45.670;11.936;2024-03-08T13:56:56;8.17;84.49
62476;DHT22;50739;45.670;11.936;2024-03-08T14:01:59;8.21;84.87
62476;DHT22;50739;45.670;11.936;2024-03-08T14:07:03;8.20;84.32
62476;DHT22;50739;45.670;11.936;2024-03-08T14:12:06;8.22;84.91
62476;DHT22;50739;45.670;11.936;2024-03-08T14:17:10;8.21;84.27
62476;DHT22;50739;45.670;11.936;2024-03-08T14:22:17;8.05;83.29
62476;DHT22;50739;45.670;11.936;2024-03-08T14:27:21;8.05;84.15
62476;DHT22;50739;45.670;11.936;2024-03-08T14:32:25;8.14;84.36
62476;DHT22;50739;45.670;11.936;2024-03-08T14:37:29;8.14;83.69
62476;DHT22;50739;45.670;11.936;2024-03-08T14:42:31;8.07;84.10
62476;DHT22;50739;45.670;11.936;2024-03-08T14:47:35;8.20;84.21
62476;DHT22;50739;45.670;11.936;2024-03-08T14:52:39;8.31;83.42
62476;DHT22;50739;45.670;11.936;2024-03-08T14:57:41;8.24;83.64
62476;DHT22;50739;45.670;11.936;2024-03-08T15:02:47;8.20;83.84
62476;DHT22;50739;45.670;11.936;2024-03-08T15:07:50;8.15;83.85
62476;DHT22;50739;45.670;11.936;2024-03-08T15:12:52;8.22;84.13
62476;DHT22;50739;45.670;11.936;2024-03-08T15:17:58;8.20;83.75
62476;DHT22;50739;45.670;11.936;2024-03-08T15:23:00;8.22;84.02
62476;DHT22;50739;45.670;11.936;2024-03-08T15:28:05;8.21;84.02
62476;DHT22;50739;45.670;11.936;2024-03-08T15:33:15;8.18;84.26
62476;DHT22;50739;45.670;11.936;2024-03-08T15:38:25;8.12;84.13
62476;DHT22;50739;45.670;11.936;2024-03-08T15:43:28;8.11;84.77
62476;DHT22;50739;45.670;11.936;2024-03-08T15:48:32;8.10;84.50
62476;DHT22;50739;45.670;11.936;2024-03-08T15:53:37;8.10;85.65
62476;DHT22;50739;45.670;11.936;2024-03-08T15:58:39;8.15;86.13
62476;DHT22;50739;45.670;11.936;2024-03-08T16:03:43;8.17;86.76
62476;DHT22;50739;45.670;11.936;2024-03-08T16:08:49;8.24;86.32
62476;DHT22;50739;45.670;11.936;2024-03-08T16:13:51;8.30;86.12
62476;DHT22;50739;45.670;11.936;2024-03-08T16:18:55;8.30;86.43
62476;DHT22;50739;45.670;11.936;2024-03-08T16:23:57;8.22;86.24
62476;DHT22;50739;45.670;11.936;2024-03-08T16:29:01;8.20;85.88
62476;DHT22;50739;45.670;11.936;2024-03-08T16:34:06;8.27;86.37
62476;DHT22;50739;45.670;11.936;2024-03-08T16:39:09;8.27;86.49
62476;DHT22;50739;45.670;11.936;2024-03-08T16:44:11;8.27;85.83
62476;DHT22;50739;45.670;11.936;2024-03-08T16:49:16;8.32;85.38
62476;DHT22;50739;45.670;11.936;2024-03-08T16:54:18;8.28;85.89
62476;DHT22;50739;45.670;11.936;2024-03-08T16:59:22;8.30;85.70
62476;DHT22;50739;45.670;11.936;2024-03-08T17:04:26;8.24;84.98
62476;DHT22;50739;45.670;11.936;2024-03-08T17:09:28;8.24;84.86
62476;DHT22;50739;45.670;11.936;2024-03-08T17:14:31;8.27;84.51
62476;DHT22;50739;45.670;11.936;2024-03-08T17:19:35;8.30;84.97
62476;DHT22;50739;45.670;11.936;2024-03-08T17:24:38;8.31;85.23
62476;DHT22;50739;45.670;11.936;2024-03-08T17:29:46;8.22;85.46
62476;DHT22;50739;45.670;11.936;2024-03-08T17:34:52;8.27;85.41
62476;DHT22;50739;45.670;11.936;2024-03-08T17:39:54;8.32;85.17
62476;DHT22;50739;45.670;11.936;2024-03-08T17:44:57;8.32;84.59
62476;DHT22;50739;45.670;11.936;2024-03-08T17:50:04;8.27;84.60
62476;DHT22;50739;45.670;11.936;2024-03-08T17:55:15;8.35;84.66
62476;DHT22;50739;45.670;11.936;2024-03-08T18:00:19;8.27;85.16
62476;DHT22;50739;45.670;11.936;2024-03-08T18:05:28;8.28;85.14
62476;DHT22;50739;45.670;11.936;2024-03-08T18:10:33;8.32;84.94
62476;DHT22;50739;45.670;11.936;2024-03-08T18:15:36;8.42;84.10
62476;DHT22;50739;45.670;11.936;2024-03-08T18:20:41;8.39;84.77
62476;DHT22;50739;45.670;11.936;2024-03-08T18:25:47;8.39;84.44
62476;DHT22;50739;45.670;11.936;2024-03-08T18:30:51;8.46;84.05
62476;DHT22;50739;45.670;11.936;2024-03-08T18:35:55;8.41;84.21
62476;DHT22;50739;45.670;11.936;2024-03-08T18:40:59;8.35;84.12
62476;DHT22;50739;45.670;11.936;2024-03-08T18:46:04;8.39;84.10
62476;DHT22;50739;45.670;11.936;2024-03-08T18:51:08;8.34;84.42
62476;DHT22;50739;45.670;11.936;2024-03-08T18:56:11;8.44;83.70
62476;DHT22;50739;45.670;11.936;2024-03-08T19:01:17;8.41;83.75
62476;DHT22;50739;45.670;11.936;2024-03-08T19:06:27;8.48;83.70
62476;DHT22;50739;45.670;11.936;2024-03-08T19:11:33;8.52;83.27
62476;DHT22;50739;45.670;11.936;2024-03-08T19:16:35;8.37;83.36
62476;DHT22;50739;45.670;11.936;2024-03-08T19:21:43;8.42;83.42
62476;DHT22;50739;45.670;11.936;2024-03-08T19:26:45;8.46;83.13
62476;DHT22;50739;45.670;11.936;2024-03-08T19:31:49;8.48;82.99
62476;DHT22;50739;45.670;11.936;2024-03-08T19:36:53;8.44;82.94
62476;DHT22;50739;45.670;11.936;2024-03-08T19:41:56;8.45;82.65
62476;DHT22;50739;45.670;11.936;2024-03-08T19:46:59;8.49;82.36
62476;DHT22;50739;45.670;11.936;2024-03-08T19:52:07;8.49;82.39
62476;DHT22;50739;45.670;11.936;2024-03-08T19:57:10;8.45;82.43
62476;DHT22;50739;45.670;11.936;2024-03-08T20:02:12;8.50;83.79
62476;DHT22;50739;45.670;11.936;2024-03-08T20:07:16;8.49;84.35
62476;DHT22;50739;45.670;11.936;2024-03-08T20:12:22;8.41;84.97
62476;DHT22;50739;45.670;11.936;2024-03-08T20:17:25;8.53;83.94
62476;DHT22;50739;45.670;11.936;2024-03-08T20:22:28;8.53;84.15
62476;DHT22;50739;45.670;11.936;2024-03-08T20:27:31;8.46;84.46
62476;DHT22;50739;45.670;11.936;2024-03-08T20:32:35;8.41;84.49
62476;DHT22;50739;45.670;11.936;2024-03-08T20:37:43;8.48;84.34
62476;DHT22;50739;45.670;11.936;2024-03-08T20:42:46;8.60;83.09
62476;DHT22;50739;45.670;11.936;2024-03-08T20:47:49;8.55;83.63
62476;DHT22;50739;45.670;11.936;2024-03-08T20:52:53;8.56;85.29
62476;DHT22;50739;45.670;11.936;2024-03-08T20:57:55;8.49;85.49
62476;DHT22;50739;45.670;11.936;2024-03-08T21:02:58;8.58;85.36
62476;DHT22;50739;45.670;11.936;2024-03-08T21:08:05;8.48;85.36
62476;DHT22;50739;45.670;11.936;2024-03-08T21:13:09;8.46;85.32
62476;DHT22;50739;45.670;11.936;2024-03-08T21:18:12;8.44;85.37
62476;DHT22;50739;45.670;11.936;2024-03-08T21:23:16;8.42;85.79
62476;DHT22;50739;45.670;11.936;2024-03-08T21:28:18;8.50;85.54
62476;DHT22;50739;45.670;11.936;2024-03-08T21:33:28;8.53;86.09
62476;DHT22;50739;45.670;11.936;2024-03-08T21:38:32;8.53;86.32
62476;DHT22;50739;45.670;11.936;2024-03-08T21:43:34;8.58;86.83
62476;DHT22;50739;45.670;11.936;2024-03-08T21:48:37;8.48;87.41
62476;DHT22;50739;45.670;11.936;2024-03-08T21:53:41;8.44;87.79
62476;DHT22;50739;45.670;11.936;2024-03-08T21:58:47;8.46;87.54
62476;DHT22;50739;45.670;11.936;2024-03-08T22:03:50;8.38;88.18
62476;DHT22;50739;45.670;11.936;2024-03-08T22:08:53;8.34;87.96
62476;DHT22;50739;45.670;11.936;2024-03-08T22:13:56;8.34;88.08
62476;DHT22;50739;45.670;11.936;2024-03-08T22:18:58;8.37;88.04
62476;DHT22;50739;45.670;11.936;2024-03-08T22:24:02;8.37;88.05
62476;DHT22;50739;45.670;11.936;2024-03-08T22:29:05;8.32;88.13
62476;DHT22;50739;45.670;11.936;2024-03-08T22:34:08;8.21;89.01
62476;DHT22;50739;45.670;11.936;2024-03-08T22:39:12;8.22;89.13
62476;DHT22;50739;45.670;11.936;2024-03-08T22:44:15;8.32;89.29
62476;DHT22;50739;45.670;11.936;2024-03-08T22:49:18;8.28;89.77
62476;DHT22;50739;45.670;11.936;2024-03-08T22:54:22;8.21;90.16
62476;DHT22;50739;45.670;11.936;2024-03-08T22:59:26;8.17;91.16
62476;DHT22;50739;45.670;11.936;2024-03-08T23:04:28;8.25;90.07
62476;DHT22;50739;45.670;11.936;2024-03-08T23:09:32;8.34;89.86
62476;DHT22;50739;45.670;11.936;2024-03-08T23:14:35;8.28;89.30
62476;DHT22;50739;45.670;11.936;2024-03-08T23:19:38;8.42;88.70
62476;DHT22;50739;45.670;11.936;2024-03-08T23:24:43;8.46;88.98
62476;DHT22;50739;45.670;11.936;2024-03-08T23:29:48;8.41;88.75
62476;DHT22;50739;45.670;11.936;2024-03-08T23:34:50;8.31;89.06
62476;DHT22;50739;45.670;11.936;2024-03-08T23:39:54;8.27;89.49
62476;DHT22;50739;45.670;11.936;2024-03-08T23:44:56;8.30;89.87
62476;DHT22;50739;45.670;11.936;2024-03-08T23:49:58;8.24;90.11
62476;DHT22;50739;45.670;11.936;2024-03-08T23:55:04;8.32;88.90
